Time,TemperatureF,DewpointF,PressureIn,WindDirection,WindDirectionDegrees,WindSpeedMPH,WindSpeedGustMPH,Humidity,HourlyPrecipIn,Conditions,Clouds,dailyrainin,SolarRadiationWatts/m^2,SoftwareType,DateUTC
2013-09-04 00:00:00,61.7,60.3,30.02,East,94,0.0,0.0,95,0.00,CLR,CLR,0.00,0.0,WeatherDisplay:10.37,2013-09-04 04:00:00,
2013-09-04 00:05:00,61.5,60.1,30.02,East,94,0.0,0.0,95,0.00,CLR,CLR,0.00,0.0,WeatherDisplay:10.37,2013-09-04 04:05:00,
2013-09-04 00:10:00,61.4,60.0,30.02,East,94,0.0,0.0,95,0.00,CLR,CLR,0.00,0.0,WeatherDisplay:10.37,2013-09-04 04:10:00,
2013-09-04 00:15:00,61.4,60.0,30.02,East,94,0.0,0.0,95,0.00,CLR,CLR,0.00,0.0,WeatherDisplay:10.37,2013-09-04 04:15:00,
2013-09-04 00:20:00,61.4,60.0,30.02,East,94,0.0,0.0,95,0.00,CLR,CLR,0.00,0.0,WeatherDisplay:10.37,2013-09-04 04:20:00,
2013-09-04 00:25:00,61.3,59.9,30.02,East,94,0.0,0.0,95,0.00,CLR,CLR,0.00,0.0,WeatherDisplay:10.37,2013-09-04 04:25:00,
2013-09-04 00:30:00,61.2,59.8,30.02,East,94,0.0,0.0,95,0.00,CLR,CLR,0.00,0.0,WeatherDisplay:10.37,2013-09-04 04:30:00,
2013-09-04 00:35:00,61.3,59.9,30.02,East,94,0.0,0.0,95,0.00,CLR,CLR,0.00,0.0,WeatherDisplay:10.37,2013-09-04 04:35:00,
2013-09-04 00:40:00,61.2,59.8,30.02,East,94,0.0,0.0,95,0.00,CLR,CLR,0.00,0.0,WeatherDisplay:10.37,2013-09-04 04:40:00,
2013-09-04 00:45:00,61.1,59.7,30.02,East,94,0.0,0.0,95,0.00,CLR,CLR,0.00,0.0,WeatherDisplay:10.37,2013-09-04 04:45:00,
2013-09-04 00:55:00,61.0,59.9,30.02,East,94,0.0,0.0,96,0.00,CLR,CLR,0.00,0.0,WeatherDisplay:10.37,2013-09-04 04:55:00,
2013-09-04 01:05:00,61.0,59.6,30.02,East,94,0.0,0.0,95,0.00,CLR,CLR,0.00,0.0,WeatherDisplay:10.37,2013-09-04 05:05:00,
2013-09-04 01:10:00,61.0,59.9,30.02,East,94,0.0,0.0,96,0.00,CLR,CLR,0.00,0.0,WeatherDisplay:10.37,2013-09-04 05:10:00,
2013-09-04 01:15:00,61.1,60.0,30.02,East,94,0.0,0.0,96,0.00,CLR,CLR,0.00,0.0,WeatherDisplay:10.37,2013-09-04 05:15:00,
2013-09-04 01:20:00,61.1,60.0,30.02,East,94,0.0,0.0,96,0.00,CLR,CLR,0.00,0.0,WeatherDisplay:10.37,2013-09-04 05:20:00,
2013-09-04 01:30:00,61.2,60.0,30.01,East,94,0.0,0.0,96,0.00,CLR,CLR,0.00,0.0,WeatherDisplay:10.37,2013-09-04 05:30:00,
2013-09-04 01:40:00,61.1,60.0,30.02,East,94,0.0,0.0,96,0.00,CLR,CLR,0.00,0.0,WeatherDisplay:10.37,2013-09-04 05:40:00,
2013-09-04 01:45:00,61.0,59.9,30.01,East,94,0.0,0.0,96,0.00,CLR,CLR,0.00,0.0,WeatherDisplay:10.37,2013-09-04 05:45:00,
2013-09-04 01:55:00,60.9,59.8,30.01,East,94,0.0,0.0,96,0.00,CLR,CLR,0.00,0.0,WeatherDisplay:10.37,2013-09-04 05:55:00,
2013-09-04 02:00:00,60.8,59.4,30.01,East,94,0.0,0.0,95,0.00,CLR,CLR,0.00,0.0,WeatherDisplay:10.37,2013-09-04 06:00:00,
2013-09-04 02:10:00,60.7,59.6,30.02,East,94,0.0,0.0,96,0.00,CLR,CLR,0.00,0.0,WeatherDisplay:10.37,2013-09-04 06:10:00,
2013-09-04 02:15:00,60.7,59.5,30.02,East,94,0.0,0.0,96,0.00,CLR,CLR,0.00,0.0,WeatherDisplay:10.37,2013-09-04 06:15:00,
2013-09-04 02:25:00,60.6,59.5,30.02,East,94,0.0,0.0,96,0.00,CLR,CLR,0.00,0.0,WeatherDisplay:10.37,2013-09-04 06:25:00,
2013-09-04 02:30:00,60.6,59.5,30.02,East,94,0.0,0.0,96,0.00,CLR,CLR,0.00,0.0,WeatherDisplay:10.37,2013-09-04 06:30:00,
2013-09-04 02:40:00,60.7,59.6,30.02,East,94,0.0,0.0,96,0.00,CLR,CLR,0.00,0.0,WeatherDisplay:10.37,2013-09-04 06:40:00,
2013-09-04 02:45:00,60.8,59.7,30.02,East,94,0.0,0.0,96,0.00,CLR,CLR,0.00,0.0,WeatherDisplay:10.37,2013-09-04 06:45:00,
2013-09-04 02:50:00,61.0,59.8,30.02,East,94,0.0,0.0,96,0.00,CLR,CLR,0.00,0.0,WeatherDisplay:10.37,2013-09-04 06:50:00,
2013-09-04 02:55:00,60.9,59.8,30.02,East,94,0.0,0.0,96,0.00,CLR,CLR,0.00,0.0,WeatherDisplay:10.37,2013-09-04 06:55:00,
2013-09-04 03:00:00,60.8,59.7,30.02,East,94,0.0,0.0,96,0.00,CLR,CLR,0.00,0.0,WeatherDisplay:10.37,2013-09-04 07:00:00,
2013-09-04 03:05:00,60.8,59.7,30.01,East,94,0.0,0.0,96,0.00,CLR,CLR,0.00,0.0,WeatherDisplay:10.37,2013-09-04 07:05:00,
2013-09-04 03:10:00,60.8,59.7,30.01,East,94,0.0,0.0,96,0.00,CLR,CLR,0.00,0.0,WeatherDisplay:10.37,2013-09-04 07:10:00,
2013-09-04 03:20:00,60.5,59.4,30.02,East,94,0.0,0.0,96,0.00,CLR,CLR,0.00,0.0,WeatherDisplay:10.37,2013-09-04 07:20:00,
2013-09-04 03:30:00,60.2,58.8,30.01,East,94,0.0,0.0,95,0.00,CLR,CLR,0.00,0.0,WeatherDisplay:10.37,2013-09-04 07:30:00,
2013-09-04 03:35:00,60.0,58.6,30.01,East,94,0.0,0.0,95,0.00,CLR,CLR,0.00,0.0,WeatherDisplay:10.37,2013-09-04 07:35:00,
2013-09-04 03:40:00,59.9,58.8,30.01,East,94,0.0,0.0,96,0.00,CLR,CLR,0.00,0.0,WeatherDisplay:10.37,2013-09-04 07:40:00,
2013-09-04 03:45:00,59.7,58.6,30.01,East,94,0.0,0.0,96,0.00,CLR,CLR,0.00,0.0,WeatherDisplay:10.37,2013-09-04 07:45:00,
2013-09-04 03:50:00,59.6,58.2,30.01,East,94,0.0,0.0,95,0.00,CLR,CLR,0.00,0.0,WeatherDisplay:10.37,2013-09-04 07:50:00,
2013-09-04 03:55:00,59.5,58.4,30.01,East,94,0.0,0.0,96,0.00,CLR,CLR,0.00,0.0,WeatherDisplay:10.37,2013-09-04 07:55:00,
2013-09-04 04:05:00,59.2,58.1,30.01,East,94,0.0,0.0,96,0.00,CLR,CLR,0.00,0.0,WeatherDisplay:10.37,2013-09-04 08:05:00,
2013-09-04 04:10:00,59.0,57.9,30.01,East,94,0.0,0.0,96,0.00,CLR,CLR,0.00,0.0,WeatherDisplay:10.37,2013-09-04 08:10:00,
2013-09-04 04:15:00,59.0,57.9,30.02,East,94,0.0,0.0,96,0.00,CLR,CLR,0.00,0.0,WeatherDisplay:10.37,2013-09-04 08:15:00,
2013-09-04 04:20:00,59.0,57.9,30.02,East,94,0.0,0.0,96,0.00,CLR,CLR,0.00,0.0,WeatherDisplay:10.37,2013-09-04 08:20:00,
2013-09-04 04:25:00,58.9,57.8,30.02,East,94,0.0,0.0,96,0.00,CLR,CLR,0.00,0.0,WeatherDisplay:10.37,2013-09-04 08:25:00,
2013-09-04 04:30:00,58.9,57.7,30.02,East,94,0.0,0.0,96,0.00,CLR,CLR,0.00,0.0,WeatherDisplay:10.37,2013-09-04 08:30:00,
2013-09-04 04:35:00,58.7,57.6,30.02,East,94,0.0,0.0,96,0.00,CLR,CLR,0.00,0.0,WeatherDisplay:10.37,2013-09-04 08:35:00,
2013-09-04 04:40:00,58.6,57.5,30.02,East,94,0.0,0.0,96,0.00,CLR,CLR,0.00,0.0,WeatherDisplay:10.37,2013-09-04 08:40:00,
2013-09-04 04:50:00,58.3,57.2,30.03,East,94,0.0,0.0,96,0.00,CLR,CLR,0.00,0.0,WeatherDisplay:10.37,2013-09-04 08:50:00,
2013-09-04 04:55:00,58.1,57.0,30.03,East,94,0.0,0.0,96,0.00,CLR,CLR,0.00,0.0,WeatherDisplay:10.37,2013-09-04 08:55:00,
2013-09-04 05:00:00,58.0,56.9,30.02,East,94,0.0,0.0,96,0.00,CLR,CLR,0.00,0.0,WeatherDisplay:10.37,2013-09-04 09:00:00,
2013-09-04 05:05:00,58.0,56.9,30.02,East,94,0.0,0.0,96,0.00,CLR,CLR,0.00,0.0,WeatherDisplay:10.37,2013-09-04 09:05:00,
2013-09-04 05:10:00,58.0,56.9,30.03,East,94,0.0,0.0,96,0.00,CLR,CLR,0.00,0.0,WeatherDisplay:10.37,2013-09-04 09:10:00,
2013-09-04 05:15:00,57.8,56.7,30.03,East,94,0.0,0.0,96,0.00,CLR,CLR,0.00,0.0,WeatherDisplay:10.37,2013-09-04 09:15:00,
2013-09-04 05:25:00,57.5,56.4,30.03,East,94,0.0,0.0,96,0.00,CLR,CLR,0.00,0.0,WeatherDisplay:10.37,2013-09-04 09:25:00,
2013-09-04 05:35:00,57.3,56.1,30.03,East,94,0.0,0.0,96,0.00,CLR,CLR,0.00,0.0,WeatherDisplay:10.37,2013-09-04 09:35:00,
2013-09-04 05:40:00,57.2,56.1,30.03,East,94,0.0,0.0,96,0.00,CLR,CLR,0.00,0.0,WeatherDisplay:10.37,2013-09-04 09:40:00,
2013-09-04 05:45:00,57.2,56.1,30.03,East,94,0.0,0.0,96,0.00,CLR,CLR,0.00,0.0,WeatherDisplay:10.37,2013-09-04 09:45:00,
2013-09-04 05:55:00,57.1,55.9,30.04,East,94,0.0,0.0,96,0.00,CLR,CLR,0.00,0.0,WeatherDisplay:10.37,2013-09-04 09:55:00,
2013-09-04 06:05:00,56.8,55.7,30.04,East,94,0.0,0.0,96,0.00,CLR,CLR,0.00,0.0,WeatherDisplay:10.37,2013-09-04 10:05:00,
2013-09-04 06:10:00,56.7,55.6,30.04,East,94,0.0,0.0,96,0.00,CLR,CLR,0.00,0.0,WeatherDisplay:10.37,2013-09-04 10:10:00,
2013-09-04 06:20:00,56.6,55.5,30.04,East,94,0.0,0.0,96,0.00,CLR,CLR,0.00,0.0,WeatherDisplay:10.37,2013-09-04 10:20:00,
2013-09-04 06:25:00,56.5,55.4,30.04,East,94,0.0,0.0,96,0.00,CLR,CLR,0.00,0.0,WeatherDisplay:10.37,2013-09-04 10:25:00,
2013-09-04 06:35:00,56.2,55.1,30.05,East,94,0.0,0.0,96,0.00,CLR,CLR,0.00,0.0,WeatherDisplay:10.37,2013-09-04 10:35:00,
2013-09-04 06:40:00,56.2,55.4,30.05,East,94,0.0,0.0,97,0.00,CLR,CLR,0.00,0.0,WeatherDisplay:10.37,2013-09-04 10:40:00,
2013-09-04 06:45:00,56.2,55.4,30.05,East,94,0.0,0.0,97,0.00,CLR,CLR,0.00,0.0,WeatherDisplay:10.37,2013-09-04 10:45:00,
2013-09-04 06:50:00,56.1,54.9,30.05,East,94,0.0,0.0,96,0.00,CLR,CLR,0.00,0.0,WeatherDisplay:10.37,2013-09-04 10:50:00,
2013-09-04 06:55:00,56.0,54.9,30.05,East,94,0.0,0.0,96,0.00,CLR,CLR,0.00,0.0,WeatherDisplay:10.37,2013-09-04 10:55:00,
2013-09-04 07:00:00,56.0,55.2,30.06,East,94,0.0,0.0,97,0.00,OVC,OVC,0.00,0.0,WeatherDisplay:10.37,2013-09-04 11:00:00,
2013-09-04 07:05:00,55.8,54.7,30.06,East,94,0.0,0.0,96,0.00,OVC,OVC,0.00,0.0,WeatherDisplay:10.37,2013-09-04 11:05:00,
2013-09-04 07:10:00,55.8,55.0,30.06,East,94,0.0,0.0,97,0.00,BKN,BKN,0.00,5.0,WeatherDisplay:10.37,2013-09-04 11:10:00,
2013-09-04 07:15:00,55.8,54.9,30.06,East,94,0.0,0.0,97,0.00,BKN,BKN,0.00,9.0,WeatherDisplay:10.37,2013-09-04 11:15:00,
2013-09-04 07:20:00,55.7,54.9,30.07,East,94,0.0,0.0,97,0.00,OVC,OVC,0.00,12.0,WeatherDisplay:10.37,2013-09-04 11:20:00,
2013-09-04 07:30:00,55.8,55.0,30.07,East,94,0.0,0.0,97,0.00,OVC,OVC,0.00,19.0,WeatherDisplay:10.37,2013-09-04 11:30:00,
2013-09-04 07:35:00,55.9,55.0,30.07,East,94,0.0,0.0,97,0.00,OVC,OVC,0.00,23.0,WeatherDisplay:10.37,2013-09-04 11:35:00,
2013-09-04 07:40:00,55.8,55.0,30.07,East,94,0.0,0.0,97,0.00,OVC,OVC,0.00,26.0,WeatherDisplay:10.37,2013-09-04 11:40:00,
2013-09-04 07:45:00,55.9,55.0,30.08,East,94,0.0,0.0,97,0.00,OVC,OVC,0.00,30.0,WeatherDisplay:10.37,2013-09-04 11:45:00,
2013-09-04 07:50:00,55.9,55.1,30.08,East,94,0.0,0.0,97,0.00,OVC,OVC,0.00,33.0,WeatherDisplay:10.37,2013-09-04 11:50:00,
2013-09-04 07:55:00,56.0,55.2,30.08,East,94,0.0,0.0,97,0.00,OVC,OVC,0.00,40.0,WeatherDisplay:10.37,2013-09-04 11:55:00,
2013-09-04 08:00:00,56.2,55.3,30.08,East,94,0.0,0.0,97,0.00,OVC,OVC,0.00,44.0,WeatherDisplay:10.37,2013-09-04 12:00:00,
2013-09-04 08:05:00,56.3,55.5,30.09,East,94,0.0,0.0,97,0.00,OVC,OVC,0.00,54.0,WeatherDisplay:10.37,2013-09-04 12:05:00,
2013-09-04 08:10:00,56.6,55.7,30.09,East,94,0.0,0.0,97,0.00,OVC,OVC,0.00,63.0,WeatherDisplay:10.37,2013-09-04 12:10:00,
2013-09-04 08:15:00,56.9,56.0,30.09,East,94,0.0,0.0,97,0.00,FEW,FEW,0.00,169.0,WeatherDisplay:10.37,2013-09-04 12:15:00,
2013-09-04 08:20:00,57.1,56.3,30.09,East,94,0.0,0.0,97,0.00,CLR,CLR,0.00,192.0,WeatherDisplay:10.37,2013-09-04 12:20:00,
2013-09-04 08:25:00,57.6,56.8,30.09,East,94,0.0,0.0,97,0.00,FEW,FEW,0.00,202.0,WeatherDisplay:10.37,2013-09-04 12:25:00,
2013-09-04 08:30:00,58.4,57.5,30.09,East,94,0.0,0.0,97,0.00,FEW,FEW,0.00,213.0,WeatherDisplay:10.37,2013-09-04 12:30:00,
2013-09-04 08:40:00,60.6,59.7,30.09,East,94,0.0,0.0,97,0.00,FEW,FEW,0.00,248.0,WeatherDisplay:10.37,2013-09-04 12:40:00,
2013-09-04 08:50:00,63.0,61.3,30.09,East,94,0.0,0.0,94,0.00,FEW,FEW,0.00,281.0,WeatherDisplay:10.37,2013-09-04 12:50:00,
2013-09-04 08:55:00,64.0,61.7,30.09,East,94,0.0,0.0,92,0.00,FEW,FEW,0.00,292.0,WeatherDisplay:10.37,2013-09-04 12:55:00,
2013-09-04 09:00:00,64.9,61.9,30.09,East,94,0.0,0.0,90,0.00,FEW,FEW,0.00,306.0,WeatherDisplay:10.37,2013-09-04 13:00:00,
2013-09-04 09:05:00,65.8,62.1,30.10,East,94,0.0,0.0,88,0.00,FEW,FEW,0.00,329.0,WeatherDisplay:10.37,2013-09-04 13:05:00,
2013-09-04 09:15:00,66.6,62.9,30.10,East,94,0.0,0.0,88,0.00,FEW,FEW,0.00,357.0,WeatherDisplay:10.37,2013-09-04 13:15:00,
2013-09-04 09:20:00,67.0,63.0,30.10,East,94,0.0,0.0,87,0.00,CLR,CLR,0.00,401.0,WeatherDisplay:10.37,2013-09-04 13:20:00,
2013-09-04 09:25:00,67.6,63.3,30.10,East,94,0.0,0.0,86,0.00,CLR,CLR,0.00,427.0,WeatherDisplay:10.37,2013-09-04 13:25:00,
2013-09-04 09:30:00,68.4,64.0,30.09,East,94,0.0,0.0,86,0.00,FEW,FEW,0.00,406.0,WeatherDisplay:10.37,2013-09-04 13:30:00,
2013-09-04 09:35:00,69.0,64.3,30.10,East,94,0.0,0.0,85,0.00,BKN,BKN,0.00,225.0,WeatherDisplay:10.37,2013-09-04 13:35:00,
2013-09-04 09:45:00,69.4,64.7,30.10,East,94,0.0,0.0,85,0.00,BKN,BKN,0.00,262.0,WeatherDisplay:10.37,2013-09-04 13:45:00,
2013-09-04 09:55:00,69.5,65.1,30.10,East,94,0.0,0.0,86,0.00,BKN,BKN,0.00,292.0,WeatherDisplay:10.37,2013-09-04 13:55:00,
2013-09-04 10:00:00,69.5,65.5,30.10,East,94,0.0,0.0,87,0.00,BKN,BKN,0.00,294.0,WeatherDisplay:10.37,2013-09-04 14:00:00,
2013-09-04 10:05:00,69.8,65.4,30.10,East,94,0.0,0.0,86,0.00,SCT,SCT,0.00,360.0,WeatherDisplay:10.37,2013-09-04 14:05:00,
2013-09-04 10:10:00,70.3,64.9,30.10,East,94,0.0,0.0,83,0.00,BKN,BKN,0.00,271.0,WeatherDisplay:10.37,2013-09-04 14:10:00,
2013-09-04 10:15:00,71.0,65.2,30.10,East,94,0.0,0.0,82,0.00,BKN,BKN,0.00,279.0,WeatherDisplay:10.37,2013-09-04 14:15:00,
2013-09-04 10:20:00,72.0,65.1,30.10,East,94,0.0,0.0,79,0.00,CLR,CLR,0.00,684.0,WeatherDisplay:10.37,2013-09-04 14:20:00,
2013-09-04 10:25:00,72.3,63.9,30.10,East,94,0.0,0.0,75,0.00,OVC,OVC,0.00,179.0,WeatherDisplay:10.37,2013-09-04 14:25:00,
2013-09-04 10:30:00,72.6,64.9,30.10,East,94,0.0,0.0,77,0.00,CLR,CLR,0.00,650.0,WeatherDisplay:10.37,2013-09-04 14:30:00,
2013-09-04 10:40:00,73.5,63.5,30.10,East,94,0.0,0.0,71,0.00,CLR,CLR,0.00,700.0,WeatherDisplay:10.37,2013-09-04 14:40:00,
2013-09-04 10:45:00,74.3,64.7,30.10,East,94,0.0,0.0,72,0.00,CLR,CLR,0.00,714.0,WeatherDisplay:10.37,2013-09-04 14:45:00,
2013-09-04 10:50:00,75.1,64.6,30.10,East,99,0.0,0.0,70,0.00,CLR,CLR,0.00,737.0,WeatherDisplay:10.37,2013-09-04 14:50:00,
2013-09-04 10:55:00,75.8,65.3,30.10,ESE,107,0.0,0.0,70,0.00,CLR,CLR,0.00,763.0,WeatherDisplay:10.37,2013-09-04 14:55:00,
2013-09-04 11:00:00,75.9,64.2,30.10,ESE,113,0.0,0.0,67,0.00,CLR,CLR,0.00,779.0,WeatherDisplay:10.37,2013-09-04 15:00:00,
2013-09-04 11:10:00,76.0,65.1,30.10,South,180,0.0,0.0,69,0.00,CLR,CLR,0.00,805.0,WeatherDisplay:10.37,2013-09-04 15:10:00,
2013-09-04 11:15:00,75.7,64.8,30.10,SW,222,0.0,0.0,69,0.00,CLR,CLR,0.00,805.0,WeatherDisplay:10.37,2013-09-04 15:15:00,
2013-09-04 11:20:00,75.4,64.5,30.10,SW,229,0.0,0.0,69,0.00,FEW,FEW,0.00,761.0,WeatherDisplay:10.37,2013-09-04 15:20:00,
2013-09-04 11:25:00,75.1,64.3,30.11,ESE,122,0.0,0.0,69,0.00,OVC,OVC,0.00,202.0,WeatherDisplay:10.37,2013-09-04 15:25:00,
2013-09-04 11:30:00,74.8,65.2,30.11,East,83,0.0,0.0,72,0.00,FEW,FEW,0.00,782.0,WeatherDisplay:10.37,2013-09-04 15:30:00,
2013-09-04 11:35:00,75.4,65.3,30.10,East,94,0.0,0.0,71,0.00,CLR,CLR,0.00,895.0,WeatherDisplay:10.37,2013-09-04 15:35:00,
2013-09-04 11:45:00,75.5,65.0,30.10,SSW,203,0.0,0.0,70,0.00,CLR,CLR,0.00,919.0,WeatherDisplay:10.37,2013-09-04 15:45:00,
2013-09-04 11:50:00,75.4,64.9,30.10,SSE,163,0.0,0.0,70,0.00,OVC,OVC,0.00,320.0,WeatherDisplay:10.37,2013-09-04 15:50:00,
2013-09-04 11:55:00,75.4,65.8,30.10,SSE,149,0.0,0.0,72,0.00,OVC,OVC,0.00,322.0,WeatherDisplay:10.37,2013-09-04 15:55:00,
2013-09-04 12:05:00,75.8,65.3,30.10,WSW,247,0.0,0.0,70,0.00,OVC,OVC,0.00,322.0,WeatherDisplay:10.37,2013-09-04 16:05:00,
2013-09-04 12:10:00,76.1,64.8,30.10,SW,236,0.0,0.0,68,0.00,SCT,SCT,0.00,538.0,WeatherDisplay:10.37,2013-09-04 16:10:00,
2013-09-04 12:15:00,76.3,65.4,30.10,South,187,0.0,0.0,69,0.00,OVC,OVC,0.00,301.0,WeatherDisplay:10.37,2013-09-04 16:15:00,
2013-09-04 12:20:00,76.5,66.4,30.10,SE,125,0.0,0.0,71,0.00,OVC,OVC,0.00,301.0,WeatherDisplay:10.37,2013-09-04 16:20:00,
2013-09-04 12:30:00,75.8,64.5,30.10,East,99,0.0,0.0,68,0.00,BKN,BKN,0.00,443.0,WeatherDisplay:10.37,2013-09-04 16:30:00,
2013-09-04 12:40:00,76.4,66.3,30.10,NE,45,0.0,0.0,71,0.00,FEW,FEW,0.00,935.0,WeatherDisplay:10.37,2013-09-04 16:40:00,
2013-09-04 12:45:00,76.6,65.7,30.10,SSW,203,0.0,0.0,69,0.00,BKN,BKN,0.00,478.0,WeatherDisplay:10.37,2013-09-04 16:45:00,
2013-09-04 12:50:00,76.6,64.8,30.10,SW,230,0.0,0.0,67,0.00,BKN,BKN,0.00,531.0,WeatherDisplay:10.37,2013-09-04 16:50:00,
2013-09-04 12:55:00,76.2,65.3,30.10,WSW,248,0.0,0.0,69,0.00,OVC,OVC,0.00,343.0,WeatherDisplay:10.37,2013-09-04 16:55:00,
2013-09-04 13:00:00,76.2,65.7,30.10,SW,223,0.0,0.0,70,0.00,OVC,OVC,0.00,345.0,WeatherDisplay:10.37,2013-09-04 17:00:00,
2013-09-04 13:05:00,76.1,66.4,30.10,SSW,200,0.0,0.0,72,0.00,OVC,OVC,0.00,272.0,WeatherDisplay:10.37,2013-09-04 17:05:00,
2013-09-04 13:10:00,75.8,65.3,30.10,SW,224,0.0,0.0,70,0.00,BKN,BKN,0.00,411.0,WeatherDisplay:10.37,2013-09-04 17:10:00,
2013-09-04 13:20:00,75.6,66.0,30.09,SSW,194,0.0,0.0,72,0.00,FEW,FEW,0.00,882.0,WeatherDisplay:10.37,2013-09-04 17:20:00,
2013-09-04 13:25:00,76.2,66.5,30.09,West,277,0.0,0.0,72,0.00,FEW,FEW,0.00,882.0,WeatherDisplay:10.37,2013-09-04 17:25:00,
2013-09-04 13:30:00,76.3,66.2,30.09,North,1,0.0,0.0,71,0.00,BKN,BKN,0.00,485.0,WeatherDisplay:10.37,2013-09-04 17:30:00,
2013-09-04 13:35:00,76.1,65.6,30.09,NNE,13,0.0,0.0,70,0.00,SCT,SCT,0.00,578.0,WeatherDisplay:10.37,2013-09-04 17:35:00,
2013-09-04 13:40:00,76.5,67.2,30.09,WNW,288,0.0,0.0,73,0.00,CLR,CLR,0.00,995.0,WeatherDisplay:10.37,2013-09-04 17:40:00,
2013-09-04 13:50:00,77.6,65.4,30.09,SSW,210,1.0,7.0,66,0.00,BKN,BKN,0.00,404.0,WeatherDisplay:10.37,2013-09-04 17:50:00,
2013-09-04 13:55:00,77.1,65.3,30.09,SSW,204,3.0,6.0,67,0.00,OVC,OVC,0.00,387.0,WeatherDisplay:10.37,2013-09-04 17:55:00,
2013-09-04 14:00:00,76.7,65.8,30.09,SW,232,0.0,4.0,69,0.00,OVC,OVC,0.00,343.0,WeatherDisplay:10.37,2013-09-04 18:00:00,
2013-09-04 14:05:00,76.6,65.7,30.09,WSW,250,0.0,5.0,69,0.00,SCT,SCT,0.00,622.0,WeatherDisplay:10.37,2013-09-04 18:05:00,
2013-09-04 14:10:00,76.6,66.1,30.09,WSW,255,0.0,5.0,70,0.00,CLR,CLR,0.00,1111.0,WeatherDisplay:10.37,2013-09-04 18:10:00,
2013-09-04 14:15:00,76.9,65.5,30.09,South,187,3.0,8.0,68,0.00,SCT,SCT,0.00,761.0,WeatherDisplay:10.37,2013-09-04 18:15:00,
2013-09-04 14:20:00,76.9,65.1,30.09,SW,229,7.0,10.0,67,0.00,SCT,SCT,0.00,719.0,WeatherDisplay:10.37,2013-09-04 18:20:00,
2013-09-04 14:25:00,76.8,66.3,30.09,WSW,258,2.0,4.0,70,0.00,FEW,FEW,0.00,928.0,WeatherDisplay:10.37,2013-09-04 18:25:00,
2013-09-04 14:35:00,77.4,66.0,30.09,South,183,2.0,7.0,68,0.00,FEW,FEW,0.00,916.0,WeatherDisplay:10.37,2013-09-04 18:35:00,
2013-09-04 14:45:00,78.1,65.4,30.08,SSE,164,2.0,6.0,65,0.00,CLR,CLR,0.00,925.0,WeatherDisplay:10.37,2013-09-04 18:45:00,
2013-09-04 14:50:00,78.5,67.1,30.08,South,183,1.0,5.0,68,0.00,OVC,OVC,0.00,225.0,WeatherDisplay:10.37,2013-09-04 18:50:00,
2013-09-04 14:55:00,78.0,66.6,30.08,South,186,0.0,7.0,68,0.00,CLR,CLR,0.00,960.0,WeatherDisplay:10.37,2013-09-04 18:55:00,
2013-09-04 15:00:00,77.3,66.4,30.08,East,89,2.0,6.0,69,0.00,OVC,OVC,0.00,225.0,WeatherDisplay:10.37,2013-09-04 19:00:00,
2013-09-04 15:05:00,76.7,66.1,30.08,ENE,78,3.0,7.0,70,0.00,FEW,FEW,0.00,875.0,WeatherDisplay:10.37,2013-09-04 19:05:00,
2013-09-04 15:15:00,76.7,66.6,30.08,East,93,1.0,7.0,71,0.00,FEW,FEW,0.00,837.0,WeatherDisplay:10.37,2013-09-04 19:15:00,
2013-09-04 15:20:00,77.3,66.3,30.08,ESE,102,2.0,9.0,69,0.00,FEW,FEW,0.00,816.0,WeatherDisplay:10.37,2013-09-04 19:20:00,
2013-09-04 15:30:00,78.0,67.4,30.08,SSW,201,0.0,6.0,70,0.00,FEW,FEW,0.00,793.0,WeatherDisplay:10.37,2013-09-04 19:30:00,
2013-09-04 15:35:00,77.9,67.3,30.08,South,173,6.0,9.0,70,0.00,BKN,BKN,0.00,345.0,WeatherDisplay:10.37,2013-09-04 19:35:00,
2013-09-04 15:40:00,77.8,67.6,30.08,SE,129,3.0,6.0,71,0.00,FEW,FEW,0.00,758.0,WeatherDisplay:10.37,2013-09-04 19:40:00,
2013-09-04 15:50:00,77.3,67.2,30.07,East,81,3.0,6.0,71,0.00,FEW,FEW,0.00,758.0,WeatherDisplay:10.37,2013-09-04 19:50:00,
2013-09-04 15:55:00,77.5,66.9,30.07,SE,135,5.0,10.0,70,0.00,FEW,FEW,0.00,708.0,WeatherDisplay:10.37,2013-09-04 19:55:00,
2013-09-04 16:00:00,77.9,67.3,30.07,South,175,1.0,6.0,70,0.00,CLR,CLR,0.00,740.0,WeatherDisplay:10.37,2013-09-04 20:00:00,
2013-09-04 16:05:00,77.6,67.8,30.06,ESE,113,1.0,8.0,72,0.00,BKN,BKN,0.00,313.0,WeatherDisplay:10.37,2013-09-04 20:05:00,
2013-09-04 16:10:00,77.5,67.4,30.06,East,88,1.0,5.0,71,0.00,CLR,CLR,0.00,733.0,WeatherDisplay:10.37,2013-09-04 20:10:00,
2013-09-04 16:15:00,77.4,66.8,30.07,ESE,121,1.0,6.0,70,0.00,CLR,CLR,0.00,696.0,WeatherDisplay:10.37,2013-09-04 20:15:00,
2013-09-04 16:20:00,77.3,67.6,30.07,SE,127,1.0,5.0,72,0.00,FEW,FEW,0.00,571.0,WeatherDisplay:10.37,2013-09-04 20:20:00,
2013-09-04 16:25:00,78.0,67.4,30.07,South,187,2.0,5.0,70,0.00,OVC,OVC,0.00,232.0,WeatherDisplay:10.37,2013-09-04 20:25:00,
2013-09-04 16:30:00,77.9,67.3,30.07,SSW,198,0.0,3.0,70,0.00,OVC,OVC,0.00,128.0,WeatherDisplay:10.37,2013-09-04 20:30:00,
2013-09-04 16:35:00,76.9,66.7,30.07,SSW,195,0.0,7.0,71,0.00,OVC,OVC,0.00,130.0,WeatherDisplay:10.37,2013-09-04 20:35:00,
2013-09-04 16:40:00,76.5,67.2,30.06,SW,228,1.0,6.0,73,0.00,FEW,FEW,0.00,582.0,WeatherDisplay:10.37,2013-09-04 20:40:00,
2013-09-04 16:45:00,76.9,68.0,30.07,SW,233,0.0,1.0,74,0.00,CLR,CLR,0.00,610.0,WeatherDisplay:10.37,2013-09-04 20:45:00,
2013-09-04 16:50:00,76.9,66.4,30.07,East,93,0.0,5.0,70,0.00,CLR,CLR,0.00,610.0,WeatherDisplay:10.37,2013-09-04 20:50:00,
2013-09-04 16:55:00,77.3,66.7,30.06,East,85,1.0,5.0,70,0.00,FEW,FEW,0.00,515.0,WeatherDisplay:10.37,2013-09-04 20:55:00,
2013-09-04 17:00:00,78.0,66.6,30.06,ESE,114,0.0,5.0,68,0.00,FEW,FEW,0.00,497.0,WeatherDisplay:10.37,2013-09-04 21:00:00,
2013-09-04 17:05:00,78.2,66.7,30.06,South,188,5.0,7.0,68,0.00,FEW,FEW,0.00,496.0,WeatherDisplay:10.37,2013-09-04 21:05:00,
2013-09-04 17:10:00,77.9,66.9,30.06,South,186,2.0,6.0,69,0.00,FEW,FEW,0.00,466.0,WeatherDisplay:10.37,2013-09-04 21:10:00,
2013-09-04 17:20:00,77.2,67.1,30.06,SE,131,0.0,7.0,71,0.00,FEW,FEW,0.00,443.0,WeatherDisplay:10.37,2013-09-04 21:20:00,
2013-09-04 17:25:00,77.1,67.0,30.06,ENE,76,1.0,4.0,71,0.00,FEW,FEW,0.00,439.0,WeatherDisplay:10.37,2013-09-04 21:25:00,
2013-09-04 17:30:00,77.6,67.1,30.06,SW,226,1.0,6.0,70,0.00,CLR,CLR,0.00,432.0,WeatherDisplay:10.37,2013-09-04 21:30:00,
2013-09-04 17:40:00,77.9,66.9,30.06,South,184,1.0,5.0,69,0.00,CLR,CLR,0.00,406.0,WeatherDisplay:10.37,2013-09-04 21:40:00,
2013-09-04 17:45:00,77.4,66.8,30.06,ESE,123,2.0,6.0,70,0.00,CLR,CLR,0.00,383.0,WeatherDisplay:10.37,2013-09-04 21:45:00,
2013-09-04 17:50:00,76.6,66.5,30.06,ESE,119,1.0,9.0,71,0.00,FEW,FEW,0.00,336.0,WeatherDisplay:10.37,2013-09-04 21:50:00,
2013-09-04 18:00:00,76.7,66.6,30.06,SE,131,0.0,4.0,71,0.00,FEW,FEW,0.00,302.0,WeatherDisplay:10.37,2013-09-04 22:00:00,
2013-09-04 18:05:00,76.8,66.7,30.06,ESE,105,1.0,4.0,71,0.00,FEW,FEW,0.00,283.0,WeatherDisplay:10.37,2013-09-04 22:05:00,
2013-09-04 18:10:00,76.7,66.6,30.06,SE,138,0.0,6.0,71,0.00,FEW,FEW,0.00,260.0,WeatherDisplay:10.37,2013-09-04 22:10:00,
2013-09-04 18:15:00,76.7,66.6,30.06,SSE,168,1.0,6.0,71,0.00,FEW,FEW,0.00,241.0,WeatherDisplay:10.37,2013-09-04 22:15:00,
2013-09-04 18:20:00,76.5,66.8,30.06,SSE,163,0.0,4.0,72,0.00,FEW,FEW,0.00,225.0,WeatherDisplay:10.37,2013-09-04 22:20:00,
2013-09-04 18:25:00,76.3,66.2,30.06,SSE,154,0.0,3.0,71,0.00,FEW,FEW,0.00,211.0,WeatherDisplay:10.37,2013-09-04 22:25:00,
2013-09-04 18:30:00,76.1,66.0,30.06,SSE,166,0.0,5.0,71,0.00,FEW,FEW,0.00,190.0,WeatherDisplay:10.37,2013-09-04 22:30:00,
2013-09-04 18:35:00,76.0,65.9,30.06,South,179,1.0,3.0,71,0.00,SCT,SCT,0.00,167.0,WeatherDisplay:10.37,2013-09-04 22:35:00,
2013-09-04 18:45:00,75.6,66.3,30.06,SE,137,0.0,1.0,73,0.00,SCT,SCT,0.00,141.0,WeatherDisplay:10.37,2013-09-04 22:45:00,
2013-09-04 18:50:00,75.3,66.8,30.06,SE,134,1.0,3.0,75,0.00,SCT,SCT,0.00,123.0,WeatherDisplay:10.37,2013-09-04 22:50:00,
2013-09-04 18:55:00,75.0,66.5,30.06,SE,134,0.0,1.0,75,0.00,SCT,SCT,0.00,104.0,WeatherDisplay:10.37,2013-09-04 22:55:00,
2013-09-04 19:00:00,74.9,66.4,30.07,SE,134,0.0,2.0,75,0.00,SCT,SCT,0.00,84.0,WeatherDisplay:10.37,2013-09-04 23:00:00,
2013-09-04 19:05:00,74.9,66.9,30.07,SE,133,0.0,1.0,76,0.00,BKN,BKN,0.00,69.0,WeatherDisplay:10.37,2013-09-04 23:05:00,
2013-09-04 19:10:00,74.9,66.4,30.07,SE,134,0.0,1.0,75,0.00,OVC,OVC,0.00,35.0,WeatherDisplay:10.37,2013-09-04 23:10:00,
2013-09-04 19:15:00,74.4,66.3,30.07,SE,134,0.0,1.0,76,0.00,BKN,BKN,0.00,42.0,WeatherDisplay:10.37,2013-09-04 23:15:00,
2013-09-04 19:20:00,74.3,66.2,30.07,SE,134,0.0,2.0,76,0.00,BKN,BKN,0.00,35.0,WeatherDisplay:10.37,2013-09-04 23:20:00,
2013-09-04 19:25:00,74.1,66.4,30.07,SE,134,0.0,2.0,77,0.00,OVC,OVC,0.00,26.0,WeatherDisplay:10.37,2013-09-04 23:25:00,
2013-09-04 19:30:00,73.6,66.7,30.07,SE,134,0.0,1.0,79,0.00,OVC,OVC,0.00,21.0,WeatherDisplay:10.37,2013-09-04 23:30:00,
2013-09-04 19:35:00,73.2,66.6,30.07,SE,134,0.0,0.0,80,0.00,OVC,OVC,0.00,18.0,WeatherDisplay:10.37,2013-09-04 23:35:00,
2013-09-04 19:40:00,72.6,66.5,30.07,SE,134,0.0,0.0,81,0.00,OVC,OVC,0.00,12.0,WeatherDisplay:10.37,2013-09-04 23:40:00,
2013-09-04 19:45:00,72.0,66.5,30.07,SE,134,0.0,0.0,83,0.00,OVC,OVC,0.00,9.0,WeatherDisplay:10.37,2013-09-04 23:45:00,
2013-09-04 19:50:00,71.5,66.5,30.07,SE,134,0.0,0.0,84,0.00,OVC,OVC,0.00,5.0,WeatherDisplay:10.37,2013-09-04 23:50:00,
2013-09-04 19:55:00,71.0,65.9,30.06,SE,134,0.0,0.0,84,0.00,OVC,OVC,0.00,0.0,WeatherDisplay:10.37,2013-09-04 23:55:00,
2013-09-04 20:00:00,70.3,65.2,30.07,SE,133,0.0,1.0,84,0.00,CLR,CLR,0.00,0.0,WeatherDisplay:10.37,2013-09-05 00:00:00,
2013-09-04 20:05:00,70.1,65.7,30.07,SE,134,0.0,0.0,86,0.00,CLR,CLR,0.00,0.0,WeatherDisplay:10.37,2013-09-05 00:05:00,
2013-09-04 20:15:00,69.4,65.3,30.07,SE,134,0.0,0.0,87,0.00,CLR,CLR,0.00,0.0,WeatherDisplay:10.37,2013-09-05 00:15:00,
2013-09-04 20:25:00,69.1,65.8,30.08,SE,134,0.0,0.0,89,0.00,CLR,CLR,0.00,0.0,WeatherDisplay:10.37,2013-09-05 00:25:00,
2013-09-04 20:30:00,69.2,65.8,30.08,SE,133,0.0,1.0,89,0.00,CLR,CLR,0.00,0.0,WeatherDisplay:10.37,2013-09-05 00:30:00,
2013-09-04 20:40:00,69.2,66.1,30.09,SE,134,0.0,0.0,90,0.00,CLR,CLR,0.00,0.0,WeatherDisplay:10.37,2013-09-05 00:40:00,
2013-09-04 20:45:00,69.3,66.2,30.09,SE,134,0.0,0.0,90,0.00,CLR,CLR,0.00,0.0,WeatherDisplay:10.37,2013-09-05 00:45:00,
2013-09-04 20:50:00,69.3,66.2,30.09,SE,134,0.0,0.0,90,0.00,CLR,CLR,0.00,0.0,WeatherDisplay:10.37,2013-09-05 00:50:00,
2013-09-04 20:55:00,69.2,66.1,30.09,SE,134,0.0,1.0,90,0.00,CLR,CLR,0.00,0.0,WeatherDisplay:10.37,2013-09-05 00:55:00,
2013-09-04 21:05:00,69.0,65.9,30.09,SE,134,0.0,0.0,90,0.00,CLR,CLR,0.00,0.0,WeatherDisplay:10.37,2013-09-05 01:05:00,
2013-09-04 21:10:00,68.7,65.6,30.09,SE,133,0.0,0.0,90,0.00,CLR,CLR,0.00,0.0,WeatherDisplay:10.37,2013-09-05 01:10:00,
2013-09-04 21:20:00,68.3,65.6,30.10,SE,134,0.0,0.0,91,0.00,CLR,CLR,0.00,0.0,WeatherDisplay:10.37,2013-09-05 01:20:00,
2013-09-04 21:25:00,68.0,65.3,30.10,SE,134,0.0,0.0,91,0.00,CLR,CLR,0.00,0.0,WeatherDisplay:10.37,2013-09-05 01:25:00,
2013-09-04 21:30:00,67.8,65.4,30.11,SE,134,0.0,0.0,92,0.00,CLR,CLR,0.00,0.0,WeatherDisplay:10.37,2013-09-05 01:30:00,
2013-09-04 21:35:00,67.6,65.2,30.11,SE,134,0.0,0.0,92,0.00,CLR,CLR,0.00,0.0,WeatherDisplay:10.37,2013-09-05 01:35:00,
2013-09-04 21:40:00,67.4,65.0,30.11,SE,134,0.0,0.0,92,0.00,CLR,CLR,0.00,0.0,WeatherDisplay:10.37,2013-09-05 01:40:00,
2013-09-04 21:50:00,67.2,65.1,30.12,SE,134,0.0,0.0,93,0.00,CLR,CLR,0.00,0.0,WeatherDisplay:10.37,2013-09-05 01:50:00,
2013-09-04 21:55:00,67.2,65.1,30.12,SE,134,0.0,0.0,93,0.00,CLR,CLR,0.00,0.0,WeatherDisplay:10.37,2013-09-05 01:55:00,
2013-09-04 22:00:00,67.2,65.1,30.11,SE,134,0.0,0.0,93,0.00,CLR,CLR,0.00,0.0,WeatherDisplay:10.37,2013-09-05 02:00:00,
2013-09-04 22:05:00,67.1,65.0,30.12,SE,134,0.0,0.0,93,0.00,CLR,CLR,0.00,0.0,WeatherDisplay:10.37,2013-09-05 02:05:00,
2013-09-04 22:10:00,67.1,65.0,30.12,SE,133,0.0,0.0,93,0.00,CLR,CLR,0.00,0.0,WeatherDisplay:10.37,2013-09-05 02:10:00,
2013-09-04 22:15:00,67.0,64.9,30.12,SE,134,0.0,0.0,93,0.00,CLR,CLR,0.00,0.0,WeatherDisplay:10.37,2013-09-05 02:15:00,
2013-09-04 22:25:00,67.0,64.9,30.12,SE,134,0.0,0.0,93,0.00,CLR,CLR,0.00,0.0,WeatherDisplay:10.37,2013-09-05 02:25:00,
2013-09-04 22:30:00,67.0,64.9,30.12,SE,134,0.0,0.0,93,0.00,CLR,CLR,0.00,0.0,WeatherDisplay:10.37,2013-09-05 02:30:00,
2013-09-04 22:35:00,67.1,65.0,30.12,SE,134,0.0,0.0,93,0.00,CLR,CLR,0.00,0.0,WeatherDisplay:10.37,2013-09-05 02:35:00,
2013-09-04 22:40:00,67.1,65.0,30.12,SE,134,0.0,0.0,93,0.00,CLR,CLR,0.00,0.0,WeatherDisplay:10.37,2013-09-05 02:40:00,
2013-09-04 22:45:00,67.1,65.0,30.12,SE,133,0.0,0.0,93,0.00,CLR,CLR,0.00,0.0,WeatherDisplay:10.37,2013-09-05 02:45:00,
2013-09-04 22:50:00,67.0,64.9,30.13,SE,134,0.0,0.0,93,0.00,CLR,CLR,0.00,0.0,WeatherDisplay:10.37,2013-09-05 02:50:00,
2013-09-04 23:00:00,66.9,65.1,30.13,SE,134,0.0,0.0,94,0.00,CLR,CLR,0.00,0.0,WeatherDisplay:10.37,2013-09-05 03:00:00,
2013-09-04 23:05:00,66.9,65.2,30.13,SE,134,0.0,0.0,94,0.00,CLR,CLR,0.00,0.0,WeatherDisplay:10.37,2013-09-05 03:05:00,
2013-09-04 23:15:00,67.0,64.9,30.13,SE,134,0.0,0.0,93,0.00,CLR,CLR,0.00,0.0,WeatherDisplay:10.37,2013-09-05 03:15:00,
2013-09-04 23:20:00,67.0,64.9,30.13,SE,134,0.0,0.0,93,0.00,CLR,CLR,0.00,0.0,WeatherDisplay:10.37,2013-09-05 03:20:00,
2013-09-04 23:25:00,67.0,64.9,30.13,SE,133,0.0,0.0,93,0.00,CLR,CLR,0.00,0.0,WeatherDisplay:10.37,2013-09-05 03:25:00,
2013-09-04 23:35:00,67.1,65.0,30.13,SE,134,0.0,0.0,93,0.00,CLR,CLR,0.00,0.0,WeatherDisplay:10.37,2013-09-05 03:35:00,
2013-09-04 23:40:00,67.1,65.0,30.13,SE,134,0.0,0.0,93,0.00,CLR,CLR,0.00,0.0,WeatherDisplay:10.37,2013-09-05 03:40:00,
2013-09-04 23:45:00,67.1,65.0,30.13,SE,134,0.0,0.0,93,0.00,CLR,CLR,0.00,0.0,WeatherDisplay:10.37,2013-09-05 03:45:00,
2013-09-04 23:50:00,67.1,65.0,30.13,SE,134,0.0,0.0,93,0.00,CLR,CLR,0.00,0.0,WeatherDisplay:10.37,2013-09-05 03:50:00,
2013-09-04 23:55:00,67.0,64.9,30.13,SE,134,0.0,0.0,93,0.00,CLR,CLR,0.00,0.0,WeatherDisplay:10.37,2013-09-05 03:55:00,